createdAt,value
2017-09-30T00:00:39.702Z,7.73
2017-09-30T00:03:07.705Z,8.13
2017-09-30T00:05:35.655Z,7.77
2017-09-30T00:08:03.613Z,7.00
2017-09-30T00:10:32.301Z,7.73
2017-09-30T00:13:01.049Z,6.83
2017-09-30T00:15:28.976Z,7.20
2017-09-30T00:17:56.940Z,8.20
2017-09-30T00:20:24.859Z,8.57
2017-09-30T00:22:53.602Z,8.30
2017-09-30T00:25:21.519Z,8.40
2017-09-30T00:27:49.523Z,7.60
2017-09-30T00:30:17.470Z,7.00
2017-09-30T00:32:45.460Z,7.20
2017-09-30T00:35:13.397Z,7.27
2017-09-30T00:37:41.372Z,7.00
2017-09-30T00:40:09.349Z,7.47
2017-09-30T00:42:37.322Z,6.80
2017-09-30T00:45:05.237Z,7.23
2017-09-30T00:47:34.611Z,7.20
2017-09-30T00:50:02.583Z,6.57
2017-09-30T00:52:30.586Z,7.13
2017-09-30T00:54:59.178Z,7.90
2017-09-30T00:57:27.202Z,6.83
2017-09-30T00:59:58.197Z,8.47
2017-09-30T01:02:26.257Z,7.73
2017-09-30T01:04:54.160Z,8.20
2017-09-30T01:07:25.998Z,7.60
2017-09-30T01:09:54.532Z,7.50
2017-09-30T01:12:22.479Z,8.50
2017-09-30T01:14:50.392Z,7.20
2017-09-30T01:17:19.122Z,7.53
2017-09-30T01:19:47.214Z,7.77
2017-09-30T01:22:15.182Z,8.00
2017-09-30T01:24:43.232Z,8.47
2017-09-30T01:27:11.206Z,7.73
2017-09-30T01:29:39.209Z,7.83
2017-09-30T01:32:07.186Z,7.13
2017-09-30T01:34:35.199Z,7.23
2017-09-30T01:37:04.116Z,6.83
2017-09-30T01:39:32.132Z,7.13
2017-09-30T01:42:00.817Z,6.10
2017-09-30T01:44:29.604Z,6.40
2017-09-30T01:46:57.554Z,8.00
2017-09-30T01:49:25.592Z,7.37
2017-09-30T01:51:53.541Z,10.53
2017-09-30T01:54:21.545Z,10.83
2017-09-30T01:56:49.594Z,10.27
2017-09-30T01:59:17.637Z,10.47
2017-09-30T02:01:46.392Z,8.10
2017-09-30T02:04:14.430Z,8.10
2017-09-30T02:06:42.531Z,8.33
2017-09-30T02:09:10.545Z,7.80
2017-09-30T02:11:39.234Z,8.00
2017-09-30T02:14:07.965Z,10.60
2017-09-30T02:16:36.050Z,17.00
2017-09-30T02:19:03.979Z,11.83
2017-09-30T02:21:31.967Z,9.57
2017-09-30T02:24:00.868Z,9.40
2017-09-30T02:26:28.838Z,10.30
2017-09-30T02:28:56.746Z,9.40
2017-09-30T02:31:24.733Z,8.60
2017-09-30T02:33:52.704Z,9.10
2017-09-30T02:36:20.666Z,8.60
2017-09-30T02:38:48.577Z,8.23
2017-09-30T02:41:16.567Z,9.47
2017-09-30T02:43:44.476Z,10.00
2017-09-30T02:46:13.240Z,11.83
2017-09-30T02:48:41.161Z,15.67
2017-09-30T02:51:09.130Z,16.27
2017-09-30T02:53:37.042Z,15.60
2017-09-30T02:56:05.000Z,15.87
2017-09-30T02:58:34.178Z,14.97
2017-09-30T03:01:02.134Z,15.10
2017-09-30T03:03:30.311Z,14.10
2017-09-30T03:05:58.268Z,13.90
2017-09-30T03:08:26.952Z,14.50
2017-09-30T03:10:54.927Z,12.73
2017-09-30T03:13:23.614Z,7.90
2017-09-30T03:15:51.627Z,6.37
2017-09-30T03:18:19.578Z,7.67
2017-09-30T03:20:47.583Z,9.30
2017-09-30T03:23:15.517Z,9.23
2017-09-30T03:25:43.451Z,9.70
2017-09-30T03:28:17.467Z,8.60
2017-09-30T03:30:46.161Z,8.80
2017-09-30T03:33:14.135Z,7.70
2017-09-30T03:35:42.057Z,9.80
2017-09-30T03:38:10.026Z,9.27
2017-09-30T03:40:37.935Z,9.00
2017-09-30T03:43:05.911Z,8.80
2017-09-30T03:45:34.583Z,8.43
2017-09-30T03:48:03.325Z,8.00
2017-09-30T03:50:31.243Z,8.30
2017-09-30T03:52:59.213Z,8.57
2017-09-30T03:55:27.883Z,7.70
2017-09-30T03:57:55.937Z,5.17
2017-09-30T04:00:23.850Z,4.80
2017-09-30T04:02:52.577Z,5.60
2017-09-30T04:05:20.516Z,5.20
2017-09-30T04:07:48.468Z,5.00
2017-09-30T04:10:17.142Z,6.03
2017-09-30T04:12:45.097Z,6.20
2017-09-30T04:15:13.007Z,6.53
2017-09-30T04:17:40.978Z,6.70
2017-09-30T04:20:08.890Z,6.77
2017-09-30T04:22:36.838Z,6.10
2017-09-30T04:25:04.749Z,7.10
2017-09-30T04:27:32.811Z,6.70
2017-09-30T04:30:00.718Z,6.53
2017-09-30T04:32:28.672Z,8.00
2017-09-30T04:34:56.577Z,7.90
2017-09-30T04:37:24.537Z,5.90
2017-09-30T04:39:52.500Z,6.53
2017-09-30T04:42:21.157Z,6.40
2017-09-30T04:44:49.104Z,7.37
2017-09-30T04:47:16.984Z,6.50
2017-09-30T04:49:44.928Z,6.53
2017-09-30T04:52:12.821Z,5.37
2017-09-30T04:54:40.778Z,5.83
2017-09-30T04:57:12.712Z,6.67
2017-09-30T04:59:40.667Z,5.57
2017-09-30T05:02:08.575Z,6.00
2017-09-30T05:04:44.258Z,4.80
2017-09-30T05:07:20.895Z,4.97
2017-09-30T05:09:51.692Z,5.43
2017-09-30T05:12:20.956Z,5.23
2017-09-30T05:14:52.119Z,6.20
2017-09-30T05:17:24.583Z,5.17
2017-09-30T05:19:57.219Z,5.87
2017-09-30T05:22:31.706Z,5.90
2017-09-30T05:25:00.999Z,4.77
2017-09-30T05:27:35.736Z,4.63
2017-09-30T05:30:05.515Z,5.97
2017-09-30T05:32:34.308Z,5.70
2017-09-30T05:35:02.301Z,5.80
2017-09-30T05:37:30.218Z,5.23
2017-09-30T05:39:58.201Z,6.40
2017-09-30T05:42:26.124Z,5.70
2017-09-30T05:44:54.090Z,6.07
2017-09-30T05:47:22.072Z,4.70
2017-09-30T05:49:50.815Z,5.80
2017-09-30T05:52:18.758Z,5.87
2017-09-30T05:54:46.770Z,4.97
2017-09-30T05:57:14.714Z,5.17
2017-09-30T05:59:42.691Z,4.83
2017-09-30T06:02:10.620Z,5.80
2017-09-30T06:04:38.529Z,5.60
2017-09-30T06:07:06.527Z,5.60
2017-09-30T06:09:34.474Z,5.20
2017-09-30T06:12:02.462Z,5.63
2017-09-30T06:14:30.385Z,5.23
2017-09-30T06:17:01.835Z,5.27
2017-09-30T06:19:29.802Z,5.00
2017-09-30T06:21:57.800Z,5.10
2017-09-30T06:24:25.731Z,5.13
2017-09-30T06:26:53.729Z,5.27
2017-09-30T06:29:21.659Z,5.30
2017-09-30T06:31:49.658Z,6.00
2017-09-30T06:34:17.612Z,5.37
2017-09-30T06:36:45.615Z,5.53
2017-09-30T06:39:13.535Z,5.50
2017-09-30T06:41:41.550Z,5.40
2017-09-30T06:44:09.494Z,5.50
2017-09-30T06:46:37.743Z,6.27
2017-09-30T06:49:06.416Z,6.53
2017-09-30T06:51:34.396Z,5.70
2017-09-30T06:54:03.078Z,5.80
2017-09-30T06:56:31.826Z,5.80
2017-09-30T06:58:59.750Z,6.03
2017-09-30T07:01:27.789Z,6.00
2017-09-30T07:03:55.764Z,7.30
2017-09-30T07:06:23.757Z,7.00
2017-09-30T07:08:52.718Z,6.87
2017-09-30T07:11:21.674Z,7.03
2017-09-30T07:13:49.776Z,8.30
2017-09-30T07:16:17.702Z,6.90
2017-09-30T07:18:45.683Z,7.60
2017-09-30T07:21:13.581Z,8.73
2017-09-30T07:23:41.544Z,7.97
2017-09-30T07:26:09.430Z,7.60
2017-09-30T07:28:37.441Z,9.10
2017-09-30T07:31:05.394Z,8.50
2017-09-30T07:33:33.375Z,7.60
2017-09-30T07:36:01.301Z,7.00
2017-09-30T07:38:29.446Z,6.63
2017-09-30T07:40:57.494Z,8.10
2017-09-30T07:43:26.232Z,8.33
2017-09-30T07:45:54.208Z,9.77
2017-09-30T07:48:22.124Z,8.00
2017-09-30T07:50:51.713Z,8.10
2017-09-30T07:53:19.711Z,7.87
2017-09-30T07:55:47.584Z,7.03
2017-09-30T07:58:15.530Z,6.93
2017-09-30T08:00:43.464Z,6.90
2017-09-30T08:03:11.549Z,5.70
2017-09-30T08:05:39.440Z,6.77
2017-09-30T08:08:07.465Z,6.23
2017-09-30T08:10:35.380Z,6.70
2017-09-30T08:13:04.137Z,6.43
2017-09-30T08:15:32.078Z,6.40
2017-09-30T08:17:59.989Z,6.40
2017-09-30T08:20:28.069Z,5.80
2017-09-30T08:22:56.160Z,5.90
2017-09-30T08:25:24.178Z,6.83
2017-09-30T08:27:52.168Z,6.40
2017-09-30T08:30:20.140Z,5.53
2017-09-30T08:32:48.098Z,6.03
2017-09-30T08:35:19.443Z,6.67
2017-09-30T08:37:47.385Z,5.03
2017-09-30T08:40:15.429Z,4.47
2017-09-30T08:42:44.267Z,5.87
2017-09-30T08:45:16.171Z,5.57
2017-09-30T08:47:44.221Z,4.80
2017-09-30T08:50:12.332Z,5.30
2017-09-30T08:52:40.324Z,4.80
2017-09-30T08:55:08.406Z,4.80
2017-09-30T08:57:36.531Z,5.37
2017-09-30T09:00:04.659Z,5.10
2017-09-30T09:02:32.641Z,5.33
2017-09-30T09:05:00.615Z,5.20
2017-09-30T09:07:28.553Z,4.57
2017-09-30T09:09:56.535Z,4.57
2017-09-30T09:12:24.542Z,5.00
2017-09-30T09:14:52.535Z,4.90
2017-09-30T09:17:20.678Z,4.37
2017-09-30T09:19:48.893Z,4.97
2017-09-30T09:22:16.839Z,4.73
2017-09-30T09:24:44.833Z,5.03
2017-09-30T09:27:13.993Z,5.60
2017-09-30T09:29:41.962Z,4.80
2017-09-30T09:32:09.996Z,4.73
2017-09-30T09:34:39.543Z,4.77
2017-09-30T09:37:09.827Z,4.57
2017-09-30T09:39:38.071Z,5.00
2017-09-30T09:42:06.169Z,4.73
2017-09-30T09:44:34.156Z,4.30
2017-09-30T09:47:03.452Z,5.07
2017-09-30T09:49:31.812Z,4.70
2017-09-30T09:51:59.894Z,5.37
2017-09-30T09:54:27.843Z,4.97
2017-09-30T09:56:55.873Z,5.90
2017-09-30T09:59:23.849Z,5.43
2017-09-30T10:01:51.873Z,6.30
2017-09-30T10:04:23.403Z,6.60
2017-09-30T10:06:51.408Z,6.63
2017-09-30T10:09:19.686Z,5.60
2017-09-30T10:11:47.647Z,6.47
2017-09-30T10:14:16.470Z,6.40
2017-09-30T10:16:59.468Z,5.57
2017-09-30T10:19:27.396Z,7.00
2017-09-30T10:21:59.740Z,7.80
2017-09-30T10:24:33.285Z,7.77
2017-09-30T10:27:05.712Z,7.10
2017-09-30T10:29:39.042Z,7.37
2017-09-30T10:32:14.160Z,5.73
2017-09-30T10:34:49.546Z,6.50
2017-09-30T10:37:20.219Z,7.07
2017-09-30T10:39:49.299Z,6.47
2017-09-30T10:42:21.801Z,5.43
2017-09-30T10:44:56.372Z,5.53
2017-09-30T10:47:27.133Z,5.20
2017-09-30T10:50:00.714Z,5.40
2017-09-30T10:52:32.422Z,5.10
2017-09-30T10:55:04.352Z,5.10
2017-09-30T10:57:38.617Z,5.90
2017-09-30T11:00:11.758Z,5.67
2017-09-30T11:02:48.456Z,6.13
2017-09-30T11:05:23.631Z,6.77
2017-09-30T11:07:55.568Z,7.70
2017-09-30T11:10:29.562Z,6.97
2017-09-30T11:12:58.145Z,7.20
2017-09-30T11:15:27.154Z,7.40
2017-09-30T11:18:02.208Z,9.00
2017-09-30T11:20:37.225Z,8.80
2017-09-30T11:23:07.324Z,2.47
2017-09-30T11:25:41.953Z,2.30
2017-09-30T11:28:11.966Z,2.20
2017-09-30T11:30:45.834Z,2.90
2017-09-30T11:33:21.738Z,2.93
2017-09-30T11:35:52.051Z,2.60
2017-09-30T11:38:21.961Z,2.17
2017-09-30T11:40:53.523Z,2.23
2017-09-30T11:43:24.464Z,3.27
2017-09-30T11:46:00.224Z,2.87
2017-09-30T11:48:37.247Z,2.90
2017-09-30T11:51:07.254Z,2.40
2017-09-30T11:53:35.685Z,2.87
2017-09-30T11:56:10.294Z,2.70
2017-09-30T11:58:42.995Z,3.33
2017-09-30T12:01:16.903Z,3.37
2017-09-30T12:03:45.256Z,2.25
2017-09-30T12:06:17.148Z,2.63
2017-09-30T12:08:50.635Z,2.85
2017-09-30T12:11:24.293Z,2.92
2017-09-30T12:13:53.520Z,3.33
2017-09-30T12:16:27.121Z,3.60
2017-09-30T12:18:55.715Z,3.45
2017-09-30T12:21:24.056Z,3.72
2017-09-30T12:23:59.112Z,4.10
2017-09-30T12:26:27.867Z,4.75
2017-09-30T12:28:57.325Z,4.15
2017-09-30T12:31:28.833Z,4.95
2017-09-30T12:34:00.698Z,5.22
2017-09-30T12:36:35.716Z,5.25
2017-09-30T12:39:09.643Z,4.80
2017-09-30T12:41:38.626Z,5.37
2017-09-30T12:44:11.880Z,5.15
2017-09-30T12:46:46.589Z,6.00
2017-09-30T12:49:22.298Z,6.50
2017-09-30T12:51:50.966Z,6.70
2017-09-30T12:54:24.321Z,6.37
2017-09-30T12:56:58.046Z,7.47
2017-09-30T12:59:27.601Z,6.37
2017-09-30T13:02:00.980Z,7.82
2017-09-30T13:04:33.971Z,7.53
2017-09-30T13:07:05.795Z,8.17
2017-09-30T13:09:37.809Z,6.53
2017-09-30T13:12:12.389Z,7.22
2017-09-30T13:14:47.219Z,7.78
2017-09-30T13:17:21.847Z,6.87
2017-09-30T13:19:50.552Z,7.97
2017-09-30T13:22:22.096Z,6.50
2017-09-30T13:24:50.213Z,6.50
2017-09-30T13:27:23.510Z,7.37
2017-09-30T13:29:52.757Z,8.63
2017-09-30T13:32:22.719Z,7.50
2017-09-30T13:34:55.317Z,7.45
2017-09-30T13:37:30.713Z,8.43
2017-09-30T13:39:59.143Z,7.17
2017-09-30T13:42:33.745Z,7.70
2017-09-30T13:45:08.421Z,8.20
2017-09-30T13:47:43.381Z,7.28
2017-09-30T13:50:12.390Z,9.15
2017-09-30T13:52:43.182Z,6.07
2017-09-30T13:55:12.520Z,7.97
2017-09-30T13:57:47.737Z,7.68
2017-09-30T14:00:17.383Z,8.00
2017-09-30T14:02:49.908Z,7.22
2017-09-30T14:05:26.708Z,6.10
2017-09-30T14:07:55.305Z,5.05
2017-09-30T14:10:25.879Z,4.90
2017-09-30T14:12:54.224Z,4.00
2017-09-30T14:15:26.056Z,3.47
2017-09-30T14:17:55.105Z,3.33
2017-09-30T14:20:27.482Z,3.72
2017-09-30T14:22:58.836Z,4.18
2017-09-30T14:25:35.839Z,3.50
2017-09-30T14:28:05.600Z,3.65
2017-09-30T14:30:39.255Z,4.03
2017-09-30T14:33:09.895Z,3.67
2017-09-30T14:35:39.539Z,3.12
2017-09-30T14:38:15.091Z,3.60
2017-09-30T14:40:47.125Z,3.90
2017-09-30T14:43:24.939Z,4.22
2017-09-30T14:45:54.169Z,3.97
2017-09-30T14:48:23.391Z,5.20
2017-09-30T14:50:58.466Z,4.05
2017-09-30T14:53:27.374Z,4.28
2017-09-30T14:55:56.428Z,3.90
2017-09-30T14:58:27.600Z,4.35
2017-09-30T15:00:56.139Z,4.45
2017-09-30T15:03:24.449Z,3.90
2017-09-30T15:05:53.930Z,4.78
2017-09-30T15:08:22.454Z,3.90
2017-09-30T15:10:50.825Z,5.10
2017-09-30T15:13:19.188Z,4.20
2017-09-30T15:15:48.737Z,4.50
2017-09-30T15:18:17.069Z,4.10
2017-09-30T15:20:45.161Z,3.50
2017-09-30T15:23:13.224Z,3.70
2017-09-30T15:25:41.703Z,4.85
2017-09-30T15:28:13.950Z,4.35
2017-09-30T15:30:42.039Z,3.97
2017-09-30T15:33:10.874Z,3.85
2017-09-30T15:35:38.930Z,3.80
2017-09-30T15:38:07.325Z,3.92
2017-09-30T15:40:35.356Z,3.65
2017-09-30T15:43:03.463Z,4.05
2017-09-30T15:45:31.583Z,3.83
2017-09-30T15:47:59.686Z,3.60
2017-09-30T15:50:28.498Z,4.53
2017-09-30T15:52:56.918Z,6.35
2017-09-30T15:55:24.988Z,5.12
2017-09-30T15:57:53.107Z,4.85
2017-09-30T16:00:21.154Z,4.75
2017-09-30T16:02:50.063Z,4.85
2017-09-30T16:05:18.115Z,4.57
2017-09-30T16:07:47.390Z,4.65
2017-09-30T16:10:15.426Z,4.75
2017-09-30T16:12:43.740Z,5.35
2017-09-30T16:15:11.816Z,4.70
2017-09-30T16:17:39.901Z,4.75
2017-09-30T16:20:07.978Z,4.00
2017-09-30T16:22:36.064Z,5.05
2017-09-30T16:25:12.414Z,5.05
2017-09-30T16:27:47.876Z,4.47
2017-09-30T16:30:20.403Z,4.90
2017-09-30T16:32:48.696Z,3.70
2017-09-30T16:35:16.707Z,4.47
2017-09-30T16:37:44.825Z,4.00
2017-09-30T16:40:12.839Z,4.32
2017-09-30T16:42:40.925Z,5.03
2017-09-30T16:45:08.956Z,4.50
2017-09-30T16:47:37.514Z,4.30
2017-09-30T16:50:05.562Z,4.72
2017-09-30T16:52:33.614Z,4.85
2017-09-30T16:55:01.630Z,4.60
2017-09-30T16:57:29.665Z,5.10
2017-09-30T16:59:57.816Z,5.40
2017-09-30T17:02:26.275Z,5.37
2017-09-30T17:04:54.301Z,6.40
2017-09-30T17:07:26.472Z,6.20
2017-09-30T17:09:55.279Z,6.62
2017-09-30T17:12:23.378Z,6.75
2017-09-30T17:14:53.925Z,6.65
2017-09-30T17:17:22.069Z,6.78
2017-09-30T17:19:50.107Z,6.87
2017-09-30T17:22:18.142Z,7.72
2017-09-30T17:24:46.138Z,8.95
2017-09-30T17:27:14.093Z,8.50
2017-09-30T17:29:42.146Z,9.07
2017-09-30T17:32:10.102Z,9.15
2017-09-30T17:34:38.145Z,8.73
2017-09-30T17:37:06.169Z,9.82
2017-09-30T17:39:34.869Z,8.98
2017-09-30T17:42:02.835Z,8.07
2017-09-30T17:44:30.899Z,10.45
2017-09-30T17:46:58.942Z,8.68
2017-09-30T17:49:27.234Z,10.23
2017-09-30T17:51:55.225Z,10.07
2017-09-30T17:54:23.280Z,9.30
2017-09-30T17:56:51.250Z,9.68
2017-09-30T17:59:19.304Z,7.82
2017-09-30T18:01:47.263Z,9.23
2017-09-30T18:04:18.808Z,8.52
2017-09-30T18:06:47.959Z,9.40
2017-09-30T18:09:16.216Z,9.05
2017-09-30T18:11:44.165Z,9.90
2017-09-30T18:14:12.234Z,10.68
2017-09-30T18:16:40.894Z,9.68
2017-09-30T18:19:08.955Z,10.70
2017-09-30T18:21:37.914Z,10.20
2017-09-30T18:24:06.275Z,12.07
2017-09-30T18:26:34.277Z,13.05
2017-09-30T18:29:12.332Z,12.57
2017-09-30T18:31:46.346Z,11.35
2017-09-30T18:34:19.316Z,13.50
2017-09-30T18:36:51.314Z,13.57
2017-09-30T18:39:23.319Z,13.52
2017-09-30T18:41:53.888Z,14.65
2017-09-30T18:44:25.088Z,13.50
2017-09-30T18:46:53.089Z,14.10
2017-09-30T18:49:21.070Z,14.23
2017-09-30T18:51:49.025Z,15.07
2017-09-30T18:54:17.031Z,12.82
2017-09-30T18:56:45.726Z,12.13
2017-09-30T18:59:13.699Z,14.05
2017-09-30T19:01:41.648Z,9.63
2017-09-30T19:04:10.405Z,9.27
2017-09-30T19:06:38.546Z,9.45
2017-09-30T19:09:06.537Z,10.35
2017-09-30T19:11:34.512Z,9.65
2017-09-30T19:14:02.751Z,8.85
2017-09-30T19:16:30.695Z,9.98
2017-09-30T19:19:00.323Z,16.98
2017-09-30T19:21:28.232Z,12.25
2017-09-30T19:23:56.233Z,10.80
2017-09-30T19:26:24.178Z,11.57
2017-09-30T19:28:56.823Z,10.65
2017-09-30T19:31:24.762Z,9.15
2017-09-30T19:33:53.514Z,7.80
2017-09-30T19:36:21.489Z,10.60
2017-09-30T19:38:49.499Z,10.23
2017-09-30T19:41:17.503Z,9.23
2017-09-30T19:43:45.545Z,12.73
2017-09-30T19:46:13.524Z,12.80
2017-09-30T19:48:41.558Z,12.20
2017-09-30T19:51:09.626Z,10.13
2017-09-30T19:53:37.600Z,11.52
2017-09-30T19:56:05.595Z,9.75
2017-09-30T19:58:36.565Z,10.60
2017-09-30T20:01:04.555Z,8.80
2017-09-30T20:03:32.498Z,10.45
2017-09-30T20:06:00.469Z,8.70
2017-09-30T20:08:28.460Z,8.38
2017-09-30T20:10:56.451Z,7.90
2017-09-30T20:13:24.367Z,7.80
2017-09-30T20:15:52.423Z,6.55
2017-09-30T20:18:20.360Z,5.87
2017-09-30T20:20:48.333Z,6.72
2017-09-30T20:23:16.270Z,6.50
2017-09-30T20:25:44.260Z,6.57
2017-09-30T20:28:12.295Z,5.65
2017-09-30T20:30:40.327Z,7.10
2017-09-30T20:33:08.254Z,7.05
2017-09-30T20:35:36.241Z,8.30
2017-09-30T20:38:04.150Z,7.75
2017-09-30T20:40:32.148Z,8.57
2017-09-30T20:43:02.356Z,9.07
2017-09-30T20:45:30.496Z,7.95
2017-09-30T20:47:58.428Z,9.57
2017-09-30T20:50:26.456Z,8.75
2017-09-30T20:52:54.396Z,10.55
2017-09-30T20:55:22.364Z,8.43
2017-09-30T20:57:50.411Z,9.95
2017-09-30T21:00:18.395Z,9.27
2017-09-30T21:02:46.332Z,10.60
2017-09-30T21:05:14.339Z,11.73
2017-09-30T21:07:42.304Z,12.23
2017-09-30T21:10:10.258Z,11.38
2017-09-30T21:12:38.272Z,12.02
2017-09-30T21:15:06.231Z,11.38
2017-09-30T21:17:34.226Z,13.57
2017-09-30T21:20:02.158Z,12.15
2017-09-30T21:22:30.154Z,14.60
2017-09-30T21:24:58.095Z,14.55
2017-09-30T21:27:29.828Z,13.15
2017-09-30T21:29:57.807Z,14.90
2017-09-30T21:32:25.774Z,14.50
2017-09-30T21:34:53.740Z,13.35
2017-09-30T21:37:21.721Z,13.70
2017-09-30T21:39:49.749Z,13.35
2017-09-30T21:42:17.757Z,12.50
2017-09-30T21:44:45.772Z,13.50
2017-09-30T21:47:13.751Z,15.90
2017-09-30T21:49:41.700Z,15.10
2017-09-30T21:52:09.714Z,15.77
2017-09-30T21:54:37.646Z,14.55
2017-09-30T21:57:05.742Z,15.38
2017-09-30T21:59:33.678Z,15.55
2017-09-30T22:02:01.647Z,17.10
2017-09-30T22:04:30.754Z,15.23
2017-09-30T22:06:59.283Z,16.92
2017-09-30T22:09:27.268Z,17.70
2017-09-30T22:12:02.719Z,15.48
2017-09-30T22:14:38.325Z,15.70
2017-09-30T22:17:14.067Z,15.68
2017-09-30T22:19:48.849Z,16.00
2017-09-30T22:22:22.854Z,12.88
2017-09-30T22:24:57.249Z,14.15
2017-09-30T22:27:33.508Z,19.00
2017-09-30T22:30:06.020Z,16.75
2017-09-30T22:32:34.203Z,18.62
2017-09-30T22:35:02.182Z,17.37
2017-09-30T22:37:31.423Z,16.20
2017-09-30T22:40:00.112Z,18.10
2017-09-30T22:42:28.168Z,19.58
2017-09-30T22:44:57.918Z,15.27
2017-09-30T22:47:26.665Z,16.50
2017-09-30T22:49:54.586Z,14.50
2017-09-30T22:52:23.300Z,15.30
2017-09-30T22:54:51.245Z,15.40
2017-09-30T22:57:20.784Z,15.40
2017-09-30T22:59:48.913Z,13.88
2017-09-30T23:02:18.496Z,14.05
2017-09-30T23:04:46.423Z,14.30
2017-09-30T23:07:14.488Z,13.80
2017-09-30T23:09:42.421Z,14.82
2017-09-30T23:12:10.445Z,13.60
2017-09-30T23:14:38.365Z,14.93
2017-09-30T23:17:06.350Z,14.60
2017-09-30T23:19:35.048Z,14.63
2017-09-30T23:22:03.040Z,13.90
2017-09-30T23:24:31.917Z,12.63
2017-09-30T23:26:59.911Z,12.20
2017-09-30T23:29:27.881Z,12.43
2017-09-30T23:31:55.860Z,12.52
2017-09-30T23:34:23.808Z,11.07
2017-09-30T23:36:51.989Z,11.75
2017-09-30T23:39:19.950Z,11.45
2017-09-30T23:41:48.199Z,12.20
2017-09-30T23:44:16.901Z,9.70
2017-09-30T23:46:44.975Z,10.00
2017-09-30T23:49:12.956Z,10.27
2017-09-30T23:51:40.940Z,8.93
2017-09-30T23:54:08.964Z,10.00
2017-09-30T23:56:37.661Z,8.70
2017-09-30T23:59:06.496Z,10.43
